Time;durP1;ratioP1;P1;durP2;ratioP2;P2;SDS_P1;SDS_P2;PMS_P1;PMS_P2;Temp;Humidity;BMP_temperature;BMP_pressure;BME280_temperature;BME280_humidity;BME280_pressure;Samples;Min_cycle;Max_cycle;Signal;HPM_P1;HPM_P2
2022/04/10 00:00:11;;;;;;;10.82;4.63;;;4.00;56.10;;;;;;5035220;28;20387;-75
2022/04/10 00:02:36;;;;;;;10.50;5.30;;;4.00;55.90;;;;;;5034900;28;20756;-75
2022/04/10 00:05:02;;;;;;;10.32;5.28;;;4.00;56.20;;;;;;5034465;28;20451;-76
2022/04/10 00:07:28;;;;;;;15.77;5.45;;;4.00;56.90;;;;;;5034630;28;20383;-78
2022/04/10 00:09:53;;;;;;;10.30;5.17;;;3.90;57.80;;;;;;5033388;28;20418;-76
2022/04/10 00:12:19;;;;;;;14.90;5.40;;;3.90;58.00;;;;;;5034901;28;20406;-75
2022/04/10 00:14:45;;;;;;;13.43;5.30;;;3.90;58.40;;;;;;5035075;28;20383;-75
2022/04/10 00:17:11;;;;;;;12.65;5.70;;;3.90;58.70;;;;;;5034224;28;20900;-76
2022/04/10 00:19:38;;;;;;;12.30;5.60;;;3.90;58.10;;;;;;5034664;28;20472;-75
2022/04/10 00:22:04;;;;;;;15.40;5.75;;;4.00;57.70;;;;;;5033369;28;20394;-75
2022/04/10 00:24:29;;;;;;;11.90;4.90;;;4.00;57.50;;;;;;5033188;28;20403;-76
2022/04/10 00:26:55;;;;;;;12.70;6.20;;;3.90;57.50;;;;;;5045043;28;20430;-75
2022/04/10 00:29:20;;;;;;;10.10;5.78;;;3.90;57.70;;;;;;5049797;28;20396;-74
2022/04/10 00:31:46;;;;;;;11.27;5.23;;;3.90;57.90;;;;;;5049431;28;20831;-74
2022/04/10 00:34:13;;;;;;;15.87;5.63;;;3.90;58.00;;;;;;5048841;28;20386;-74
2022/04/10 00:36:38;;;;;;;12.60;5.97;;;3.90;58.10;;;;;;5048545;28;20470;-76
2022/04/10 00:39:04;;;;;;;15.70;5.40;;;3.90;58.10;;;;;;5049252;28;20406;-75
2022/04/10 00:41:30;;;;;;;12.20;6.20;;;3.90;57.90;;;;;;5051050;28;20372;-75
2022/04/10 00:44:09;;;;;;;14.63;5.97;;;3.90;58.60;;;;;;5049952;28;20387;-75
2022/04/10 00:46:35;;;;;;;11.55;5.53;;;3.90;57.50;;;;;;5051935;28;20387;-75
2022/04/10 00:49:02;;;;;;;18.42;6.38;;;3.80;58.00;;;;;;5047716;28;20383;-75
2022/04/10 00:54:26;;;;;;;13.02;6.70;;;3.80;57.80;;;;;;5019518;28;20752;-76
2022/04/10 00:56:54;;;;;;;14.68;5.93;;;3.90;56.80;;;;;;5043344;28;20446;-75
2022/04/10 00:59:20;;;;;;;12.25;5.30;;;3.90;56.50;;;;;;5042704;28;20383;-75
2022/04/10 01:01:47;;;;;;;20.73;6.40;;;3.90;57.00;;;;;;5042996;28;20383;-75
2022/04/10 01:04:14;;;;;;;16.98;6.20;;;3.90;57.60;;;;;;5040215;28;20383;-75
2022/04/10 01:06:40;;;;;;;15.77;5.78;;;3.90;55.90;;;;;;5039822;28;20387;-75
2022/04/10 01:09:06;;;;;;;15.05;5.60;;;3.90;55.70;;;;;;5038767;28;20391;-74
2022/04/10 01:11:33;;;;;;;11.67;5.40;;;3.90;55.50;;;;;;5038757;28;20386;-75
2022/04/10 01:14:00;;;;;;;16.48;5.80;;;3.90;55.40;;;;;;5039598;28;20391;-75
2022/04/10 01:16:27;;;;;;;12.48;5.75;;;3.90;55.50;;;;;;5039943;28;20461;-74
2022/04/10 01:18:53;;;;;;;13.88;5.55;;;3.80;56.20;;;;;;5041283;28;20391;-75
2022/04/10 01:21:27;;;;;;;14.77;5.20;;;3.80;55.60;;;;;;5039866;28;20441;-75
2022/04/10 01:23:54;;;;;;;11.45;5.32;;;3.80;55.20;;;;;;5039631;28;20751;-75
2022/04/10 01:26:21;;;;;;;19.37;5.30;;;3.80;55.40;;;;;;5038673;28;20395;-75
2022/04/10 01:29:00;;;;;;;13.80;5.40;;;3.80;54.70;;;;;;5036451;28;20445;-75
2022/04/10 01:31:27;;;;;;;11.57;4.90;;;3.80;54.70;;;;;;5038275;28;20375;-75
2022/04/10 01:33:57;;;;;;;10.82;5.30;;;3.80;54.50;;;;;;5038754;28;20379;-75
2022/04/10 01:36:28;;;;;;;12.50;5.07;;;3.80;54.00;;;;;;5037630;28;20868;-75
2022/04/10 01:38:55;;;;;;;14.52;5.30;;;3.80;54.10;;;;;;5040311;28;20422;-75
2022/04/10 01:41:25;;;;;;;11.18;5.60;;;3.80;54.10;;;;;;5042860;28;20413;-76
2022/04/10 01:43:52;;;;;;;13.43;5.22;;;3.80;53.90;;;;;;5032801;28;20387;-76
2022/04/10 01:46:18;;;;;;;15.23;5.32;;;3.80;54.20;;;;;;5032429;28;20387;-76
2022/04/10 01:48:44;;;;;;;9.38;4.90;;;3.70;54.00;;;;;;5032113;28;20872;-76
2022/04/10 01:51:10;;;;;;;14.07;5.00;;;3.70;54.30;;;;;;5034234;28;20427;-76
2022/04/10 01:53:36;;;;;;;14.95;5.75;;;3.60;54.70;;;;;;5033764;28;20391;-77
2022/04/10 01:56:07;;;;;;;14.20;5.68;;;3.60;55.00;;;;;;5033008;28;20384;-77
2022/04/10 01:58:35;;;;;;;13.20;5.53;;;3.60;54.70;;;;;;5033688;28;20414;-77
2022/04/10 02:01:02;;;;;;;13.43;5.93;;;3.60;54.70;;;;;;5032035;28;20388;-76
2022/04/10 02:03:28;;;;;;;15.38;5.68;;;3.60;54.50;;;;;;5033937;28;20445;-77
2022/04/10 02:05:55;;;;;;;11.85;5.40;;;3.70;53.90;;;;;;5032426;28;20391;-76
2022/04/10 02:08:21;;;;;;;17.55;5.68;;;3.70;53.00;;;;;;5031476;28;20415;-74
2022/04/10 02:10:47;;;;;;;11.27;5.10;;;3.70;53.70;;;;;;5032675;28;20398;-76
2022/04/10 02:13:12;;;;;;;19.52;5.43;;;3.60;53.90;;;;;;5037971;28;20387;-76
2022/04/10 02:15:38;;;;;;;14.35;5.38;;;3.50;54.50;;;;;;5038304;28;20383;-77
2022/04/10 02:18:05;;;;;;;14.98;5.43;;;3.40;55.90;;;;;;5035126;28;20440;-75
2022/04/10 02:20:30;;;;;;;17.48;5.90;;;3.40;57.30;;;;;;5032886;28;20387;-75
2022/04/10 02:22:56;;;;;;;17.95;6.22;;;3.40;56.60;;;;;;5031230;28;20441;-75
2022/04/10 02:25:21;;;;;;;15.98;6.50;;;3.30;57.50;;;;;;5031215;28;20383;-75
2022/04/10 02:27:47;;;;;;;15.80;6.25;;;3.30;58.40;;;;;;5031273;28;20391;-75
2022/04/10 02:30:12;;;;;;;17.05;5.80;;;3.30;58.10;;;;;;5029808;28;20423;-75
2022/04/10 02:32:41;;;;;;;19.88;5.82;;;3.40;57.60;;;;;;5031283;28;20744;-75
2022/04/10 02:35:08;;;;;;;17.00;6.90;;;3.40;58.00;;;;;;5029696;28;20391;-75
2022/04/10 02:37:34;;;;;;;14.35;5.70;;;3.30;57.90;;;;;;5031355;28;20486;-76
2022/04/10 02:40:00;;;;;;;13.18;6.00;;;3.30;57.40;;;;;;5031143;28;20807;-76
2022/04/10 02:42:27;;;;;;;14.27;6.13;;;3.50;56.80;;;;;;5030789;28;20426;-76
2022/04/10 02:44:53;;;;;;;15.77;6.18;;;3.50;55.80;;;;;;5031157;28;20379;-76
2022/04/10 02:47:19;;;;;;;15.25;6.03;;;3.50;55.90;;;;;;5031195;28;20399;-76
2022/04/10 02:49:45;;;;;;;11.55;5.72;;;3.50;56.30;;;;;;5031181;28;20844;-76
2022/04/10 02:52:10;;;;;;;16.77;6.03;;;3.40;56.20;;;;;;5030719;28;20387;-77
2022/04/10 02:54:36;;;;;;;13.25;5.95;;;3.40;56.50;;;;;;5031325;28;20398;-75
2022/04/10 02:57:02;;;;;;;15.77;6.40;;;3.40;56.60;;;;;;5030988;28;20458;-76
2022/04/10 02:59:27;;;;;;;14.37;6.80;;;3.40;57.20;;;;;;5031019;28;20748;-75
2022/04/10 03:01:53;;;;;;;14.20;6.00;;;3.40;57.50;;;;;;5034723;28;20390;-75
2022/04/10 03:04:18;;;;;;;22.40;6.40;;;3.50;56.50;;;;;;5033579;28;20491;-76
2022/04/10 03:06:44;;;;;;;12.90;6.22;;;3.50;54.90;;;;;;5034976;28;20389;-76
2022/04/10 03:09:10;;;;;;;15.77;6.35;;;3.40;56.60;;;;;;5034809;28;20390;-76
2022/04/10 03:11:35;;;;;;;15.50;6.03;;;3.30;57.80;;;;;;5034488;28;20383;-76
2022/04/10 03:14:02;;;;;;;17.73;6.97;;;3.20;59.00;;;;;;5034843;28;20443;-76
2022/04/10 03:16:28;;;;;;;15.75;6.00;;;3.10;59.60;;;;;;5034899;28;20389;-76
2022/04/10 03:18:53;;;;;;;16.05;6.50;;;3.10;60.30;;;;;;5034692;28;20935;-76
2022/04/10 03:21:19;;;;;;;15.38;6.13;;;3.20;58.90;;;;;;5034324;28;20458;-76
2022/04/10 03:23:45;;;;;;;15.00;6.57;;;3.10;60.60;;;;;;5034783;28;20752;-75
2022/04/10 03:26:11;;;;;;;20.33;6.43;;;3.10;59.80;;;;;;5033523;28;20402;-76
2022/04/10 03:28:37;;;;;;;12.23;5.90;;;3.30;58.90;;;;;;5034702;28;20406;-75
2022/04/10 03:31:02;;;;;;;17.83;7.40;;;3.30;58.50;;;;;;5034100;28;20383;-75
2022/04/10 03:33:28;;;;;;;15.70;6.10;;;3.40;57.50;;;;;;5034981;28;20470;-75
2022/04/10 03:35:54;;;;;;;21.33;6.47;;;3.40;57.50;;;;;;5034562;28;20399;-75
2022/04/10 03:38:20;;;;;;;16.70;6.63;;;3.40;57.40;;;;;;5034500;28;20445;-75
2022/04/10 03:40:46;;;;;;;17.67;6.68;;;3.40;57.30;;;;;;5033215;28;20481;-75
2022/04/10 03:43:12;;;;;;;17.17;7.37;;;3.40;57.60;;;;;;5034292;28;20415;-75
2022/04/10 03:45:38;;;;;;;20.52;7.50;;;3.40;57.70;;;;;;5034331;28;20383;-75
2022/04/10 03:48:08;;;;;;;14.63;6.70;;;3.40;58.00;;;;;;5032940;28;20427;-75
2022/04/10 03:50:34;;;;;;;15.90;7.10;;;3.40;58.70;;;;;;5034343;28;20405;-75
2022/04/10 03:53:04;;;;;;;14.93;6.97;;;3.20;58.70;;;;;;5034665;28;20407;-75
2022/04/10 03:55:32;;;;;;;16.33;6.80;;;3.00;61.20;;;;;;5035227;28;20383;-75
2022/04/10 03:57:58;;;;;;;12.15;7.03;;;2.80;63.50;;;;;;5032939;28;20403;-76
2022/04/10 04:00:23;;;;;;;21.48;7.93;;;2.60;66.70;;;;;;5036151;28;20478;-75
2022/04/10 04:02:49;;;;;;;18.07;7.43;;;2.60;70.20;;;;;;5038133;28;20394;-75
2022/04/10 04:05:14;;;;;;;14.30;7.30;;;2.70;69.70;;;;;;5048820;28;20419;-78
2022/04/10 04:07:40;;;;;;;12.33;6.87;;;2.50;71.10;;;;;;5044363;28;20391;-75
2022/04/10 04:10:07;;;;;;;15.05;7.85;;;2.60;71.70;;;;;;5033711;28;20872;-75
2022/04/10 04:12:36;;;;;;;20.92;8.45;;;2.60;72.40;;;;;;5032902;28;20410;-75
2022/04/10 04:15:03;;;;;;;23.25;8.13;;;2.50;72.30;;;;;;5033425;28;20391;-75
2022/04/10 04:17:29;;;;;;;16.98;7.63;;;2.40;73.60;;;;;;5033483;28;20407;-75
2022/04/10 04:19:54;;;;;;;17.10;7.55;;;2.40;74.50;;;;;;5034261;28;20410;-75
2022/04/10 04:22:20;;;;;;;16.90;7.38;;;2.40;76.00;;;;;;5033253;28;20394;-75
2022/04/10 04:24:46;;;;;;;18.67;8.18;;;2.40;76.50;;;;;;5033399;28;20387;-75
2022/04/10 04:27:12;;;;;;;15.97;7.50;;;2.30;76.90;;;;;;5033714;28;20406;-75
2022/04/10 04:29:38;;;;;;;17.33;7.93;;;2.20;78.90;;;;;;5033910;28;20391;-75
2022/04/10 04:32:04;;;;;;;17.55;8.20;;;2.20;79.00;;;;;;5033158;28;20872;-76
2022/04/10 04:34:30;;;;;;;17.33;8.60;;;2.20;79.60;;;;;;5033269;28;20473;-75
2022/04/10 04:36:55;;;;;;;15.53;8.07;;;2.10;79.00;;;;;;5032894;28;20570;-75
2022/04/10 04:39:21;;;;;;;17.83;7.70;;;2.10;80.30;;;;;;5032944;28;20399;-75
2022/04/10 04:41:46;;;;;;;18.02;8.48;;;2.00;80.90;;;;;;5032630;28;20379;-75
2022/04/10 04:44:12;;;;;;;17.63;8.80;;;2.00;81.60;;;;;;5032996;28;20868;-75
2022/04/10 04:46:38;;;;;;;19.67;9.18;;;1.90;82.70;;;;;;5032946;28;20466;-75
2022/04/10 04:49:04;;;;;;;20.80;9.50;;;1.90;83.60;;;;;;5032879;28;20417;-75
2022/04/10 04:51:34;;;;;;;17.27;9.52;;;1.90;84.60;;;;;;5032778;28;21002;-75
2022/04/10 04:54:01;;;;;;;23.98;10.88;;;1.80;86.10;;;;;;5032296;28;20422;-75
2022/04/10 04:56:26;;;;;;;18.27;10.30;;;1.80;87.00;;;;;;5033673;28;20387;-75
2022/04/10 04:58:52;;;;;;;20.37;10.33;;;1.70;87.40;;;;;;5035170;28;20390;-74
2022/04/10 05:01:17;;;;;;;24.87;11.60;;;1.70;89.30;;;;;;5032885;28;20476;-76
2022/04/10 05:03:43;;;;;;;24.50;11.00;;;1.80;88.60;;;;;;5032978;28;20462;-76
2022/04/10 05:06:08;;;;;;;24.03;11.23;;;1.80;89.30;;;;;;5032778;28;20383;-75
2022/04/10 05:08:34;;;;;;;22.37;11.87;;;1.80;89.60;;;;;;5032664;28;20796;-75
2022/04/10 05:11:00;;;;;;;20.95;10.95;;;1.80;88.90;;;;;;5032630;28;20795;-76
2022/04/10 05:13:26;;;;;;;18.77;12.13;;;1.80;89.00;;;;;;5032594;28;20387;-76
2022/04/10 05:15:52;;;;;;;26.08;12.60;;;1.80;89.90;;;;;;5032879;28;20387;-76
2022/04/10 05:18:19;;;;;;;19.23;10.70;;;1.80;90.80;;;;;;5033905;28;20497;-76
2022/04/10 05:20:45;;;;;;;22.30;12.00;;;1.90;91.30;;;;;;5033985;28;20457;-76
2022/04/10 05:23:16;;;;;;;24.40;11.48;;;1.90;89.90;;;;;;5032878;28;20391;-76
2022/04/10 05:25:41;;;;;;;26.70;12.00;;;2.00;90.60;;;;;;5033669;28;20391;-76
2022/04/10 05:28:07;;;;;;;20.05;11.18;;;2.00;89.60;;;;;;5033541;28;20479;-76
2022/04/10 05:30:33;;;;;;;21.03;11.43;;;2.10;89.00;;;;;;5038150;28;20473;-76
2022/04/10 05:32:59;;;;;;;21.83;12.07;;;2.00;89.10;;;;;;5034751;28;20397;-76
2022/04/10 05:35:24;;;;;;;21.98;11.50;;;2.00;89.20;;;;;;5032966;28;20526;-76
2022/04/10 05:37:50;;;;;;;21.33;11.07;;;2.00;89.50;;;;;;5032930;28;20492;-76
2022/04/10 05:40:16;;;;;;;18.07;10.60;;;2.10;89.10;;;;;;5032449;28;20470;-76
2022/04/10 05:42:45;;;;;;;22.23;11.23;;;2.10;88.20;;;;;;5032076;28;20894;-76
2022/04/10 05:45:11;;;;;;;20.20;12.00;;;2.20;88.00;;;;;;5032372;28;20391;-76
2022/04/10 05:47:39;;;;;;;21.98;11.52;;;2.30;88.00;;;;;;5033240;28;20831;-75
2022/04/10 05:50:05;;;;;;;17.65;10.75;;;2.40;86.70;;;;;;5032336;28;20821;-76
2022/04/10 05:52:31;;;;;;;16.27;11.00;;;2.60;84.00;;;;;;5032446;28;20391;-75
2022/04/10 05:54:59;;;;;;;18.33;10.43;;;2.70;80.20;;;;;;5033009;28;20413;-75
2022/04/10 05:57:25;;;;;;;22.50;11.25;;;2.70;79.70;;;;;;5032772;28;20414;-76
2022/04/10 05:59:51;;;;;;;21.35;10.63;;;2.80;78.40;;;;;;5032263;28;20461;-76
2022/04/10 06:02:17;;;;;;;19.17;10.97;;;2.80;78.60;;;;;;5033131;28;20430;-76
2022/04/10 06:04:42;;;;;;;19.02;10.90;;;2.80;78.00;;;;;;5033035;28;20394;-76
2022/04/10 06:07:08;;;;;;;17.90;10.50;;;2.90;79.10;;;;;;5032690;28;20391;-77
2022/04/10 06:09:34;;;;;;;19.55;10.98;;;3.00;78.00;;;;;;5032942;28;20427;-76
2022/04/10 06:11:59;;;;;;;17.23;10.80;;;3.20;76.70;;;;;;5032707;28;20748;-76
2022/04/10 06:14:25;;;;;;;17.30;10.70;;;3.30;75.20;;;;;;5032832;28;20425;-76
2022/04/10 06:16:50;;;;;;;18.33;11.15;;;3.40;74.30;;;;;;5032252;28;20407;-76
2022/04/10 06:19:18;;;;;;;18.70;11.70;;;3.50;72.00;;;;;;5031928;28;20410;-76
2022/04/10 06:21:44;;;;;;;18.73;11.25;;;3.70;70.30;;;;;;5031545;28;20379;-76
2022/04/10 06:24:09;;;;;;;22.88;11.73;;;3.80;69.10;;;;;;5032409;28;20470;-75
2022/04/10 06:26:35;;;;;;;21.67;11.60;;;3.90;67.40;;;;;;5032639;28;20437;-75
2022/04/10 06:29:01;;;;;;;19.42;11.60;;;4.00;66.50;;;;;;5031979;28;20441;-77
2022/04/10 06:31:26;;;;;;;20.13;11.77;;;4.10;65.90;;;;;;5031607;28;20408;-77
2022/04/10 06:33:54;;;;;;;20.20;10.98;;;4.10;64.80;;;;;;5032458;28;20890;-76
2022/04/10 06:36:19;;;;;;;18.85;11.35;;;4.20;63.10;;;;;;5032126;28;20422;-76
2022/04/10 06:38:45;;;;;;;20.38;11.27;;;4.20;63.30;;;;;;5032298;28;20407;-76
2022/04/10 06:41:11;;;;;;;21.63;11.23;;;4.30;62.90;;;;;;5032255;28;20403;-76
2022/04/10 06:43:36;;;;;;;17.50;10.27;;;4.50;62.00;;;;;;5037138;28;20383;-76
2022/04/10 06:46:04;;;;;;;23.53;11.90;;;4.80;58.20;;;;;;5038103;28;20399;-75
2022/04/10 06:48:30;;;;;;;16.02;10.38;;;5.00;56.80;;;;;;5040069;28;20387;-76
2022/04/10 06:50:56;;;;;;;16.02;10.70;;;5.10;56.00;;;;;;5040386;28;20764;-76
2022/04/10 06:53:22;;;;;;;16.80;10.20;;;5.30;55.40;;;;;;5038227;28;20391;-76
2022/04/10 06:55:47;;;;;;;16.92;9.50;;;5.70;50.30;;;;;;5035956;28;20390;-76
2022/04/10 06:58:13;;;;;;;14.80;8.10;;;6.10;46.00;;;;;;5034234;28;20419;-77
2022/04/10 07:00:40;;;;;;;16.87;9.23;;;6.50;41.30;;;;;;5033085;28;20445;-77
2022/04/10 07:03:06;;;;;;;15.57;8.07;;;6.70;40.40;;;;;;5032557;28;20871;-75
2022/04/10 07:05:31;;;;;;;15.10;8.35;;;6.90;38.50;;;;;;5033200;28;20387;-76
2022/04/10 07:07:57;;;;;;;15.30;7.15;;;7.10;37.50;;;;;;5032927;28;20410;-76
2022/04/10 07:10:23;;;;;;;14.18;7.72;;;6.90;37.30;;;;;;5032374;28;20391;-75
2022/04/10 07:12:48;;;;;;;12.85;6.82;;;6.80;37.60;;;;;;5031076;28;20394;-75
2022/04/10 07:15:14;;;;;;;20.50;8.10;;;6.50;38.20;;;;;;5030891;28;20781;-75
2022/04/10 07:17:39;;;;;;;14.33;7.83;;;6.30;39.30;;;;;;5031131;28;20402;-75
2022/04/10 07:20:06;;;;;;;18.53;8.20;;;6.20;40.80;;;;;;5031650;28;20470;-75
2022/04/10 07:25:16;;;;;;;18.63;7.63;;;6.20;41.70;;;;;;5036540;28;20883;-76
2022/04/10 07:27:42;;;;;;;14.80;7.82;;;6.40;41.20;;;;;;5032381;28;20399;-75
2022/04/10 07:30:08;;;;;;;13.63;7.97;;;6.70;39.10;;;;;;5031476;28;20397;-76
2022/04/10 07:32:33;;;;;;;12.00;7.30;;;6.90;38.20;;;;;;5030753;28;20815;-75
2022/04/10 07:35:03;;;;;;;18.00;7.17;;;7.20;36.80;;;;;;5030845;28;20398;-75
2022/04/10 07:37:29;;;;;;;11.13;6.90;;;7.40;35.80;;;;;;5030762;28;20444;-76
2022/04/10 07:39:54;;;;;;;18.13;7.30;;;7.70;35.10;;;;;;5030661;28;20722;-76
2022/04/10 07:42:20;;;;;;;11.30;6.90;;;8.00;32.90;;;;;;5034705;28;20386;-76
2022/04/10 07:44:46;;;;;;;13.48;6.80;;;8.20;32.10;;;;;;5037271;28;20383;-76
2022/04/10 07:47:26;;;;;;;9.38;6.07;;;8.20;31.50;;;;;;5041610;28;20382;-75
2022/04/10 07:49:53;;;;;;;14.88;6.78;;;8.30;31.40;;;;;;5039106;28;20399;-76
2022/04/10 07:52:20;;;;;;;13.20;6.10;;;8.10;32.30;;;;;;5048440;23;20435;-75
2022/04/10 07:54:47;;;;;;;10.83;6.40;;;8.20;32.10;;;;;;5041290;28;20439;-74
2022/04/10 07:57:12;;;;;;;19.27;7.00;;;8.30;31.70;;;;;;5040427;28;20420;-74
2022/04/10 07:59:38;;;;;;;11.45;6.78;;;8.10;32.00;;;;;;5041141;28;20860;-73
2022/04/10 08:02:04;;;;;;;14.63;6.68;;;7.90;32.50;;;;;;5043169;28;20390;-74
2022/04/10 08:04:29;;;;;;;10.88;6.40;;;7.70;33.40;;;;;;5041549;28;20380;-74
2022/04/10 08:06:55;;;;;;;15.80;7.53;;;7.70;34.10;;;;;;5036307;28;20392;-74
2022/04/10 08:09:20;;;;;;;13.37;7.13;;;7.70;34.20;;;;;;5037711;28;20501;-74
2022/04/10 08:11:46;;;;;;;16.60;7.17;;;7.80;34.30;;;;;;5034306;28;20387;-74
2022/04/10 08:14:12;;;;;;;13.80;7.03;;;8.00;33.90;;;;;;5034448;28;20417;-74
2022/04/10 08:16:37;;;;;;;11.43;5.77;;;8.50;31.50;;;;;;5034501;28;20386;-74
2022/04/10 08:19:03;;;;;;;12.30;5.37;;;8.90;28.90;;;;;;5036876;28;20867;-73
2022/04/10 08:21:28;;;;;;;8.80;4.80;;;8.90;27.50;;;;;;5037779;28;20379;-73
2022/04/10 08:23:54;;;;;;;12.63;4.90;;;9.00;25.80;;;;;;5034718;28;20383;-73
2022/04/10 08:26:20;;;;;;;12.70;5.20;;;9.10;26.70;;;;;;5034823;28;20890;-74
2022/04/10 08:28:45;;;;;;;8.80;4.20;;;9.20;26.60;;;;;;5035047;28;20387;-74
2022/04/10 08:31:11;;;;;;;14.57;4.30;;;8.70;26.20;;;;;;5034439;28;20406;-74
2022/04/10 08:33:37;;;;;;;18.88;4.82;;;8.30;28.10;;;;;;5035041;28;20880;-74
2022/04/10 08:36:02;;;;;;;10.70;4.40;;;8.30;29.40;;;;;;5038807;28;20390;-74
2022/04/10 08:38:29;;;;;;;9.35;5.03;;;8.30;28.00;;;;;;5041841;28;20417;-75
2022/04/10 08:41:02;;;;;;;11.75;4.93;;;8.20;28.00;;;;;;5042050;28;20895;-74
2022/04/10 08:43:28;;;;;;;8.55;4.68;;;8.40;27.60;;;;;;5040445;28;20520;-74
2022/04/10 08:45:58;;;;;;;11.77;4.50;;;8.70;26.70;;;;;;5043071;28;20391;-74
2022/04/10 08:48:26;;;;;;;10.18;3.90;;;9.10;25.60;;;;;;5042912;28;20438;-74
2022/04/10 08:50:54;;;;;;;9.77;4.00;;;9.30;23.00;;;;;;5059430;28;20428;-73
2022/04/10 08:53:21;;;;;;;10.30;3.80;;;9.40;22.90;;;;;;5059567;28;20403;-74
2022/04/10 08:55:46;;;;;;;6.72;3.58;;;9.30;23.40;;;;;;5042179;28;20387;-75
2022/04/10 08:58:12;;;;;;;11.48;3.90;;;9.10;22.70;;;;;;5042178;28;20756;-75
2022/04/10 09:00:42;;;;;;;7.95;4.05;;;9.30;23.00;;;;;;5043590;28;20390;-75
2022/04/10 09:03:08;;;;;;;5.32;3.30;;;9.80;22.40;;;;;;5044202;28;20457;-73
2022/04/10 09:05:33;;;;;;;7.60;2.80;;;9.60;20.30;;;;;;5040953;28;20427;-74
2022/04/10 09:08:12;;;;;;;8.80;3.77;;;9.10;21.90;;;;;;5042316;28;20447;-73
2022/04/10 09:11:04;;;;;;;11.00;4.10;;;9.50;21.20;;;;;;5045749;28;20391;-74
2022/04/10 09:13:35;;;;;;;8.77;3.38;;;10.00;19.20;;;;;;5043507;28;20399;-74
2022/04/10 09:16:14;;;;;;;8.05;2.90;;;10.20;17.70;;;;;;5043935;28;20759;-75
2022/04/10 09:18:55;;;;;;;5.47;3.22;;;10.00;18.00;;;;;;5043929;28;20541;-73
2022/04/10 09:21:34;;;;;;;9.88;3.25;;;9.80;19.00;;;;;;5041040;28;20804;-75
2022/04/10 09:24:08;;;;;;;13.70;3.60;;;9.60;19.50;;;;;;5055892;28;20431;-73
2022/04/10 09:26:57;;;;;;;8.98;3.00;;;9.60;20.00;;;;;;5041423;28;20883;-76
2022/04/10 09:29:24;;;;;;;5.35;1.83;;;10.00;18.10;;;;;;5042184;28;20387;-74
2022/04/10 09:31:51;;;;;;;5.82;2.60;;;9.80;17.90;;;;;;5042195;28;20419;-75
2022/04/10 09:34:21;;;;;;;6.80;2.90;;;9.60;18.50;;;;;;5041674;28;20403;-75
2022/04/10 09:36:58;;;;;;;6.40;2.50;;;9.90;18.60;;;;;;5042838;28;20387;-74
2022/04/10 09:39:34;;;;;;;5.13;2.60;;;9.60;18.70;;;;;;5043060;28;20907;-75
2022/04/10 09:42:07;;;;;;;7.72;3.22;;;9.30;19.30;;;;;;5042634;28;20386;-75
2022/04/10 09:44:37;;;;;;;11.55;2.70;;;9.20;19.80;;;;;;5040826;28;20379;-73
2022/04/10 09:47:08;;;;;;;5.82;2.70;;;9.30;18.80;;;;;;5043032;28;20391;-75
2022/04/10 09:49:41;;;;;;;8.02;2.85;;;9.10;19.00;;;;;;5041458;28;20397;-75
2022/04/10 09:52:11;;;;;;;6.90;2.55;;;8.90;19.60;;;;;;5041078;28;20436;-73
2022/04/10 09:54:42;;;;;;;9.60;2.90;;;8.90;19.80;;;;;;5057662;28;20390;-74
2022/04/10 09:57:15;;;;;;;7.23;3.40;;;9.10;20.00;;;;;;5041681;28;20507;-74
2022/04/10 09:59:43;;;;;;;5.50;2.70;;;9.40;19.60;;;;;;5040635;28;20386;-74
2022/04/10 10:02:10;;;;;;;7.15;3.45;;;9.30;19.00;;;;;;5042020;28;20525;-77
2022/04/10 10:04:37;;;;;;;5.15;2.50;;;9.30;19.70;;;;;;5045861;28;20398;-75
2022/04/10 10:07:11;;;;;;;6.30;2.22;;;9.00;19.90;;;;;;5046747;28;20732;-75
2022/04/10 10:09:38;;;;;;;8.02;3.03;;;8.60;20.90;;;;;;5042729;28;20437;-75
2022/04/10 10:12:05;;;;;;;7.63;3.60;;;8.70;21.90;;;;;;5041363;28;20753;-73
2022/04/10 10:14:32;;;;;;;7.88;3.72;;;9.00;22.10;;;;;;5057743;28;20752;-76
2022/04/10 10:16:59;;;;;;;6.93;3.17;;;9.20;21.40;;;;;;5041316;28;20427;-73
2022/04/10 10:19:28;;;;;;;8.55;3.55;;;9.60;20.80;;;;;;5042507;28;20418;-74
2022/04/10 10:21:54;;;;;;;10.77;4.18;;;9.40;20.10;;;;;;5042289;28;20390;-73
2022/04/10 10:24:23;;;;;;;5.57;3.47;;;9.90;20.00;;;;;;5040215;28;20383;-75
2022/04/10 10:27:10;;;;;;;10.10;3.53;;;10.40;18.10;;;;;;5038502;28;20383;-75
2022/04/10 10:29:57;;;;;;;8.40;3.28;;;10.80;17.60;;;;;;5038547;28;20422;-75
2022/04/10 10:32:49;;;;;;;4.03;1.92;;;11.20;16.40;;;;;;5039945;28;20787;-76
2022/04/10 10:35:57;;;;;;;6.50;2.95;;;10.70;14.90;;;;;;5042142;28;20406;-76
2022/04/10 10:38:28;;;;;;;7.53;2.90;;;10.60;15.70;;;;;;5008245;28;20411;-76
2022/04/10 10:41:09;;;;;;;8.32;2.90;;;10.60;15.50;;;;;;5042016;28;20391;-75
2022/04/10 10:43:35;;;;;;;6.72;2.70;;;10.20;17.00;;;;;;5042888;28;20551;-75
2022/04/10 10:46:00;;;;;;;11.17;3.90;;;9.90;18.20;;;;;;5040187;28;20419;-73
2022/04/10 10:48:32;;;;;;;13.00;3.67;;;9.80;18.70;;;;;;5040467;28;20402;-72
2022/04/10 10:51:10;;;;;;;10.27;3.30;;;9.90;19.30;;;;;;5041756;28;20387;-76
2022/04/10 10:53:44;;;;;;;9.60;3.60;;;10.10;19.20;;;;;;5043487;28;20391;-75
2022/04/10 10:56:14;;;;;;;6.80;3.30;;;10.30;17.70;;;;;;5043948;28;20386;-75
2022/04/10 10:58:40;;;;;;;6.45;2.50;;;10.50;16.80;;;;;;5045129;28;20403;-76
2022/04/10 11:01:08;;;;;;;5.90;2.00;;;10.40;16.30;;;;;;5062364;28;20873;-75
2022/04/10 11:04:04;;;;;;;7.82;3.60;;;10.20;17.20;;;;;;5042638;28;20880;-76
2022/04/10 11:06:31;;;;;;;8.90;2.83;;;10.90;16.90;;;;;;5040133;28;20960;-75
2022/04/10 11:09:31;;;;;;;6.38;2.80;;;10.90;15.30;;;;;;5042721;28;20690;-77
2022/04/10 11:12:00;;;;;;;7.30;2.95;;;10.60;16.40;;;;;;5041952;28;20391;-75
2022/04/10 11:14:38;;;;;;;7.40;2.53;;;10.20;17.90;;;;;;5043434;28;20451;-76
2022/04/10 11:17:31;;;;;;;5.22;2.30;;;10.10;17.90;;;;;;5043927;28;20422;-75
2022/04/10 11:20:09;;;;;;;7.50;3.03;;;10.50;16.70;;;;;;5041697;28;20391;-73
2022/04/10 11:22:39;;;;;;;6.70;1.77;;;10.80;15.90;;;;;;5045886;28;20398;-74
2022/04/10 11:25:09;;;;;;;7.93;2.58;;;10.60;16.20;;;;;;5047116;28;20729;-75
2022/04/10 11:27:48;;;;;;;4.65;2.60;;;10.40;15.80;;;;;;5045658;28;20431;-76
2022/04/10 11:30:19;;;;;;;3.70;2.10;;;10.20;16.30;;;;;;5045520;28;20379;-74
2022/04/10 11:32:53;;;;;;;6.50;2.20;;;10.00;16.40;;;;;;5043995;28;20383;-75
2022/04/10 11:35:20;;;;;;;3.92;1.30;;;10.00;17.30;;;;;;5044957;28;20398;-76
2022/04/10 11:37:49;;;;;;;3.40;1.90;;;10.10;16.10;;;;;;5046245;28;20403;-74
2022/04/10 11:40:20;;;;;;;5.05;2.30;;;9.80;16.80;;;;;;5044616;28;20739;-75
2022/04/10 11:42:46;;;;;;;6.22;2.80;;;10.20;16.80;;;;;;5044970;28;20383;-74
2022/04/10 11:45:13;;;;;;;4.10;2.10;;;10.60;16.10;;;;;;5044606;28;20441;-74
2022/04/10 11:47:42;;;;;;;5.13;1.90;;;11.00;13.90;;;;;;5043363;28;20387;-76
2022/04/10 11:50:09;;;;;;;4.65;1.90;;;11.30;12.90;;;;;;5041057;28;20395;-74
2022/04/10 11:52:37;;;;;;;4.40;1.50;;;11.70;12.00;;;;;;5042209;28;20407;-75
2022/04/10 11:55:05;;;;;;;2.97;1.35;;;11.60;10.70;;;;;;5042850;28;20537;-74
2022/04/10 11:57:31;;;;;;;3.75;1.90;;;10.90;13.00;;;;;;5045221;28;20768;-74
2022/04/10 11:59:56;;;;;;;7.67;2.10;;;11.10;14.20;;;;;;5044713;28;20387;-73
2022/04/10 12:02:23;;;;;;;7.23;2.20;;;11.20;12.70;;;;;;5043875;28;20399;-74
2022/04/10 12:04:50;;;;;;;4.00;1.80;;;11.50;11.80;;;;;;5041878;28;20444;-75
2022/04/10 12:07:20;;;;;;;5.47;2.00;;;11.90;11.70;;;;;;5042207;28;20399;-75
2022/04/10 12:09:52;;;;;;;6.07;2.08;;;11.90;12.30;;;;;;5044393;28;20752;-73
2022/04/10 12:12:19;;;;;;;3.33;1.90;;;11.70;12.80;;;;;;5045121;28;20476;-76
2022/04/10 12:14:47;;;;;;;5.13;1.60;;;11.00;13.70;;;;;;5044336;28;20443;-75
2022/04/10 12:17:18;;;;;;;9.75;1.80;;;10.90;12.90;;;;;;5044839;28;20418;-75
2022/04/10 12:19:44;;;;;;;4.45;1.42;;;10.60;11.80;;;;;;5046045;28;20555;-74
2022/04/10 12:22:10;;;;;;;4.20;1.40;;;10.40;12.30;;;;;;5044493;28;20855;-76
2022/04/10 12:24:37;;;;;;;5.40;1.50;;;10.30;12.30;;;;;;5045334;28;20449;-76
2022/04/10 12:27:07;;;;;;;3.35;1.50;;;10.50;12.50;;;;;;5043923;28;20406;-74
2022/04/10 12:29:35;;;;;;;6.60;1.98;;;10.90;12.30;;;;;;5043644;28;20741;-75
2022/04/10 12:32:01;;;;;;;2.95;1.20;;;11.20;12.60;;;;;;5057544;28;20941;-76
2022/04/10 12:34:35;;;;;;;5.78;1.70;;;10.90;12.10;;;;;;5041852;28;20393;-73
2022/04/10 12:37:09;;;;;;;7.90;1.80;;;10.70;12.90;;;;;;5042576;28;20413;-76
2022/04/10 12:39:35;;;;;;;4.80;1.70;;;10.70;12.20;;;;;;5044584;28;20752;-75
2022/04/10 12:42:09;;;;;;;6.10;1.10;;;10.60;11.30;;;;;;5043370;28;20387;-75
2022/04/10 12:44:37;;;;;;;3.42;1.40;;;10.80;11.10;;;;;;5042453;28;20423;-74
2022/04/10 12:47:04;;;;;;;8.60;2.70;;;11.20;11.60;;;;;;5039701;28;20487;-74
2022/04/10 12:49:30;;;;;;;1.90;1.00;;;11.80;10.10;;;;;;5044045;28;20387;-73
2022/04/10 12:52:00;;;;;;;4.53;2.00;;;11.80;7.90;;;;;;5043676;28;20418;-74
2022/04/10 12:54:41;;;;;;;4.40;1.50;;;12.20;7.10;;;;;;5046510;28;20417;-75